Woodland Hills, CA

11:59 AM PDT on August 29, 2014 (GMT -0700)
Fallbrook Mall Area | Change Station
CLOSE
Current Station
Personal Weather Station
Location: Woodland Hills, CA
Elevation: 832 ft
Nearby Weather Stations

Elev 832 ft 34.18 °N, 118.62 °W | Updated 9 seconds ago

Clear
Clear
90.5 °F
Feels Like 87 °F
N
0.0
Wind Variable Wind from East
Gusts 0.0 mph

Today
High -- | Low -- °F
--% Chance of Precip.
Yesterday
High -- | Low -- °F
Precip. -- in
6:25 AM 7:24 PM
Waxing Crescent, 16% visible
Pressure 29.84 in
Visibility 10.0 miles
Clouds Few 20000 ft
Heat Index 87 °F
Dew Point 45 °F
Humidity 21%
Rainfall 0.00 in
Snow Depth Not available.
UV 9 out of 12
Pollen 7.80 out of 12
Ozone Good
PM2.5 Moderate
Flu Activity Not available.
METAR KVNY 291851Z 12006KT 10SM FEW200 32/08 A2987 RMK AO2 SLP105 T03220083

More Conditions Fewer Conditions

Pressure 29.84 in
Visibility 10.0 miles
Clouds Few 20000 ft
Heat Index 87 °F
Dew Point 45 °F
Humidity 21%
Rainfall 0.00 in
Snow Depth Not available.
UV 9 out of 12
Pollen 7.80 out of 12
Ozone Good
PM2.5 Moderate
Flu Activity Not available.
METAR KVNY 291851Z 12006KT 10SM FEW200 32/08 A2987 RMK AO2 SLP105 T03220083

More Conditions Fewer Conditions

10-Day Weather Forecast

Almanac

Astronomy

Aug. 29, 2014 Rise Set
Actual Time 6:25 AM PDT 7:24 PM PDT
Civil Twilight 6:00 AM PDT 7:49 PM PDT
Nautical Twilight 5:29 AM PDT 8:20 PM PDT
Astronomical Twilight 4:58 AM PDT 8:51 PM PDT
Moon 10:07 AM PDT 9:37 PM PDT
Length of Visible Light 13h 49m
Length of Day
12h 58m
Tomorrow will be 2m 1s shorter.
Waxing Crescent, 16% of the Moon is Illuminated
Today
Waxing Crescent
Sep 2
First Quarter
Sep 8
Full
Sep 15
Last Quarter
Sep 24
New

Today's Extremes

State Highs State Lows

Community

WunderPhotos

Upload Photos

1,748,314 photos uploaded!

Nearby

Air Quality

  Air Quality AQ Index Pollutant
Yesterday Moderate
PM2.5
Yesterday Good
OZONE
Current Moderate
PM2.5
Current Good
OZONE
Saturday Good
PM10
Saturday Moderate
OZONE
Saturday Good
CO
Saturday Good
NO2

Snow Depth

Station Depth Elevation
Summit Meadow 0 in 9122 ft
Forestdale Creek 0 in 8029 ft
Fallen Leaf 0 in 6300 ft
Rubicon #2 0 in 7500 ft
CSS Lab 0 in 6900 ft

Earthquake Activity

City Distance Mag. Time & Date
No recent earthquake activity has been reported nearby.
Minimum magnitude displayed is 2.5.

Coastal Water Temperatures

Place Temperature
Santa Monica Pier 72.0 °F
Los Angeles, CA 66.0 °F
La Jolla, CA 70.0 °F

Nearby Weather Stations